createdAt,value
2018-12-07T00:01:32.635Z,85.27
2018-12-07T00:04:00.890Z,86.12
2018-12-07T00:06:29.106Z,84.33
2018-12-07T00:08:57.798Z,84.52
2018-12-07T00:11:26.067Z,84.23
2018-12-07T00:13:54.869Z,84.29
2018-12-07T00:16:23.302Z,84.45
2018-12-07T00:18:51.490Z,84.64
2018-12-07T00:21:19.810Z,84.91
2018-12-07T00:23:48.111Z,84.72
2018-12-07T00:26:16.830Z,83.63
2018-12-07T00:28:45.266Z,83.37
2018-12-07T00:31:13.449Z,82.36
2018-12-07T00:33:41.612Z,83.46
2018-12-07T00:36:09.931Z,83.40
2018-12-07T00:38:38.949Z,83.23
2018-12-07T00:41:07.621Z,83.06
2018-12-07T00:43:35.957Z,82.50
2018-12-07T00:46:04.325Z,83.32
2018-12-07T00:48:32.601Z,83.03
2018-12-07T00:51:00.795Z,83.45
2018-12-07T00:53:29.156Z,83.77
2018-12-07T00:55:57.354Z,83.19
2018-12-07T00:58:26.345Z,83.11
2018-12-07T01:00:54.547Z,84.14
2018-12-07T01:03:23.734Z,84.26
2018-12-07T01:05:51.982Z,84.74
2018-12-07T01:08:20.250Z,85.03
2018-12-07T01:10:48.778Z,85.30
2018-12-07T01:13:17.051Z,85.32
2018-12-07T01:15:46.139Z,85.89
2018-12-07T01:18:14.318Z,85.65
2018-12-07T01:20:43.492Z,86.41
2018-12-07T01:23:11.829Z,85.24
2018-12-07T01:25:40.101Z,86.00
2018-12-07T01:28:09.240Z,87.32
2018-12-07T01:30:37.712Z,86.56
2018-12-07T01:33:05.888Z,86.94
2018-12-07T01:35:34.195Z,87.55
2018-12-07T01:38:02.458Z,87.65
2018-12-07T01:40:30.653Z,87.09
2018-12-07T01:42:58.893Z,87.18
2018-12-07T01:45:27.162Z,87.09
2018-12-07T01:47:55.488Z,87.77
2018-12-07T01:50:23.778Z,87.94
2018-12-07T01:52:52.136Z,88.30
2018-12-07T01:55:21.297Z,88.53
2018-12-07T01:57:49.530Z,87.71
2018-12-07T02:00:17.833Z,88.31
2018-12-07T02:02:45.985Z,87.94
2018-12-07T02:05:14.410Z,88.25
2018-12-07T02:07:42.589Z,88.26
2018-12-07T02:10:11.201Z,88.90
2018-12-07T02:15:07.638Z,89.24
2018-12-07T02:17:35.916Z,89.55
2018-12-07T02:20:05.304Z,89.34
2018-12-07T02:22:33.676Z,88.93
2018-12-07T02:25:02.219Z,89.68
2018-12-07T02:27:34.678Z,89.98
2018-12-07T02:30:01.846Z,89.66
2018-12-07T02:32:30.145Z,90.19
2018-12-07T02:34:58.596Z,90.01
2018-12-07T02:37:26.885Z,90.34
2018-12-07T02:39:55.165Z,90.37
2018-12-07T02:42:23.473Z,91.25
2018-12-07T02:44:51.704Z,90.14
2018-12-07T02:47:20.001Z,90.39
2018-12-07T02:49:48.310Z,91.39
2018-12-07T02:52:16.496Z,90.14
2018-12-07T02:54:44.817Z,90.95
2018-12-07T02:57:13.036Z,91.18
2018-12-07T02:59:41.266Z,90.45
2018-12-07T03:02:09.674Z,90.85
2018-12-07T03:04:37.962Z,91.18
2018-12-07T03:07:06.296Z,91.24
2018-12-07T03:09:34.542Z,91.54
2018-12-07T03:12:04.100Z,91.01
2018-12-07T03:14:32.334Z,91.81
2018-12-07T03:17:00.597Z,91.37
2018-12-07T03:19:28.945Z,91.37
2018-12-07T03:21:57.265Z,91.94
2018-12-07T03:24:25.484Z,92.00
2018-12-07T03:26:53.741Z,91.65
2018-12-07T03:29:22.029Z,91.26
2018-12-07T03:31:50.306Z,91.24
2018-12-07T03:34:18.588Z,91.45
2018-12-07T03:36:46.753Z,91.52
2018-12-07T03:39:14.962Z,91.44
2018-12-07T03:41:43.312Z,92.21
2018-12-07T03:44:11.520Z,92.14
2018-12-07T03:46:39.869Z,92.55
2018-12-07T03:49:08.281Z,92.50
2018-12-07T03:51:36.541Z,92.49
2018-12-07T03:54:04.818Z,91.83
2018-12-07T03:56:33.052Z,92.42
2018-12-07T03:59:01.846Z,92.20
2018-12-07T04:01:30.365Z,92.49
2018-12-07T04:03:58.645Z,92.35
2018-12-07T04:06:26.830Z,91.35
2018-12-07T04:08:55.078Z,90.88
2018-12-07T04:11:23.371Z,91.75
2018-12-07T04:13:51.592Z,91.95
2018-12-07T04:16:19.896Z,91.14
2018-12-07T04:18:48.113Z,91.80
2018-12-07T04:21:16.296Z,91.13
2018-12-07T04:23:44.658Z,90.80
2018-12-07T04:26:12.902Z,90.70
2018-12-07T04:28:41.344Z,90.75
2018-12-07T04:31:09.788Z,90.15
2018-12-07T04:33:37.979Z,90.73
2018-12-07T04:36:07.505Z,91.00
2018-12-07T04:38:36.327Z,90.10
2018-12-07T04:41:04.580Z,90.24
2018-12-07T04:43:32.918Z,90.46
2018-12-07T04:46:01.170Z,90.28
2018-12-07T04:48:29.569Z,90.49
2018-12-07T04:50:58.406Z,90.69
2018-12-07T04:53:26.674Z,90.67
2018-12-07T04:55:55.163Z,90.96
2018-12-07T04:58:23.335Z,91.65
2018-12-07T05:00:51.555Z,90.99
2018-12-07T05:03:19.926Z,91.73
2018-12-07T05:05:48.206Z,91.17
2018-12-07T05:08:16.404Z,91.29
2018-12-07T05:10:44.733Z,91.82
2018-12-07T05:13:13.063Z,91.27
2018-12-07T05:15:41.545Z,91.30
2018-12-07T05:18:10.738Z,92.29
2018-12-07T05:28:41.482Z,90.82
2018-12-07T05:31:09.715Z,90.92
2018-12-07T05:33:38.005Z,91.65
2018-12-07T05:36:06.222Z,92.01
2018-12-07T05:38:34.478Z,92.33
2018-12-07T05:41:02.733Z,91.91
2018-12-07T05:43:30.919Z,92.06
2018-12-07T05:45:59.917Z,92.46
2018-12-07T05:48:31.177Z,93.24
2018-12-07T05:50:59.333Z,93.15
2018-12-07T05:53:27.774Z,93.00
2018-12-07T05:55:57.367Z,92.91
2018-12-07T05:58:25.714Z,93.29
2018-12-07T06:00:54.679Z,93.37
2018-12-07T06:03:23.467Z,93.07
2018-12-07T06:05:51.648Z,93.49
2018-12-07T06:08:19.950Z,93.98
2018-12-07T06:10:48.105Z,92.76
2018-12-07T06:13:16.370Z,93.71
2018-12-07T06:15:44.546Z,92.67
2018-12-07T06:18:12.990Z,93.77
2018-12-07T06:20:41.192Z,92.82
2018-12-07T06:23:09.390Z,93.72
2018-12-07T06:25:37.649Z,93.06
2018-12-07T06:28:05.932Z,93.76
2018-12-07T06:30:34.341Z,92.43
2018-12-07T06:33:02.585Z,93.51
2018-12-07T06:35:30.857Z,93.54
2018-12-07T06:37:59.086Z,93.30
2018-12-07T06:40:27.277Z,93.76
2018-12-07T06:42:55.462Z,93.26
2018-12-07T06:45:23.765Z,92.79
2018-12-07T06:47:51.921Z,94.02
2018-12-07T06:50:20.103Z,93.20
2018-12-07T06:52:48.398Z,93.19
2018-12-07T06:55:16.989Z,93.20
2018-12-07T06:57:45.242Z,92.91
2018-12-07T07:00:13.732Z,92.82
2018-12-07T07:02:42.009Z,93.54
2018-12-07T07:05:10.272Z,92.55
2018-12-07T07:07:38.589Z,93.28
2018-12-07T07:10:07.969Z,92.50
2018-12-07T07:12:36.165Z,93.32
2018-12-07T07:15:04.617Z,92.44
2018-12-07T07:17:32.830Z,93.83
2018-12-07T07:20:01.137Z,92.34
2018-12-07T07:22:29.440Z,92.93
2018-12-07T07:24:57.991Z,92.91
2018-12-07T07:27:26.220Z,92.91
2018-12-07T07:29:54.380Z,93.17
2018-12-07T07:32:22.643Z,92.42
2018-12-07T07:34:50.808Z,93.14
2018-12-07T07:37:18.973Z,93.12
2018-12-07T07:39:47.125Z,93.08
2018-12-07T07:42:15.393Z,91.99
2018-12-07T07:44:43.718Z,92.28
2018-12-07T07:47:11.891Z,91.88
2018-12-07T07:49:40.178Z,91.87
2018-12-07T07:52:08.405Z,92.33
2018-12-07T07:54:36.710Z,92.03
2018-12-07T07:57:05.110Z,92.00
2018-12-07T07:59:33.290Z,92.07
2018-12-07T08:02:01.567Z,91.55
2018-12-07T08:04:29.817Z,91.75
2018-12-07T08:06:58.069Z,91.94
2018-12-07T08:09:26.233Z,90.70
2018-12-07T08:11:54.529Z,91.63
2018-12-07T08:14:22.817Z,91.18
2018-12-07T08:16:51.155Z,91.63
2018-12-07T08:19:19.333Z,91.46
2018-12-07T08:21:47.541Z,91.08
2018-12-07T08:24:15.812Z,90.94
2018-12-07T08:26:44.003Z,91.51
2018-12-07T08:29:12.265Z,91.57
2018-12-07T08:31:40.425Z,90.09
2018-12-07T08:34:08.664Z,91.10
2018-12-07T08:36:36.832Z,91.04
2018-12-07T08:39:09.358Z,90.64
2018-12-07T08:41:37.577Z,90.82
2018-12-07T08:44:05.738Z,89.79
2018-12-07T08:46:34.041Z,90.46
2018-12-07T08:49:02.329Z,89.93
2018-12-07T08:51:30.603Z,90.91
2018-12-07T08:53:58.781Z,90.21
2018-12-07T08:56:26.989Z,89.67
2018-12-07T08:58:55.282Z,89.55
2018-12-07T09:01:23.566Z,90.31
2018-12-07T09:03:51.829Z,90.01
2018-12-07T09:06:20.089Z,89.95
2018-12-07T09:08:48.644Z,89.95
2018-12-07T09:11:16.860Z,89.66
2018-12-07T09:13:46.548Z,89.37
2018-12-07T09:16:14.940Z,89.11
2018-12-07T09:18:43.282Z,89.29
2018-12-07T09:21:12.121Z,89.22
2018-12-07T09:23:40.274Z,89.20
2018-12-07T09:26:08.576Z,89.81
2018-12-07T09:28:36.825Z,88.54
2018-12-07T09:31:05.137Z,88.48
2018-12-07T09:33:33.317Z,88.41
2018-12-07T09:36:01.565Z,89.10
2018-12-07T09:38:29.861Z,88.16
2018-12-07T09:40:58.240Z,89.17
2018-12-07T09:43:26.441Z,88.12
2018-12-07T09:45:54.966Z,87.99
2018-12-07T09:48:23.141Z,87.45
2018-12-07T09:50:51.314Z,87.97
2018-12-07T09:53:19.489Z,87.31
2018-12-07T09:55:47.757Z,88.01
2018-12-07T09:58:15.937Z,87.53
2018-12-07T10:00:44.109Z,88.04
2018-12-07T10:03:12.347Z,87.39
2018-12-07T10:05:40.535Z,88.28
2018-12-07T10:08:08.710Z,88.12
2018-12-07T10:10:36.906Z,87.62
2018-12-07T10:13:08.132Z,87.57
2018-12-07T10:15:35.264Z,87.41
2018-12-07T10:18:03.468Z,87.44
2018-12-07T10:20:31.846Z,87.13
2018-12-07T10:23:00.802Z,86.17
2018-12-07T10:25:28.957Z,86.23
2018-12-07T10:27:57.173Z,86.58
2018-12-07T10:30:25.370Z,86.58
2018-12-07T10:32:53.517Z,86.84
2018-12-07T10:35:21.900Z,86.51
2018-12-07T10:37:50.144Z,86.45
2018-12-07T10:40:18.473Z,86.91
2018-12-07T10:42:46.752Z,86.48
2018-12-07T10:45:15.018Z,85.68
2018-12-07T10:47:50.061Z,86.03
2018-12-07T10:50:14.246Z,85.92
2018-12-07T10:52:42.509Z,85.90
2018-12-07T10:55:10.729Z,85.03
2018-12-07T10:57:40.032Z,84.79
2018-12-07T11:00:14.146Z,84.88
2018-12-07T11:02:47.666Z,84.26
2018-12-07T11:05:22.414Z,83.95
2018-12-07T11:07:56.017Z,84.77
2018-12-07T11:10:29.561Z,83.93
2018-12-07T11:13:04.053Z,83.33
2018-12-07T11:15:37.874Z,82.31
2018-12-07T11:18:11.293Z,82.44
2018-12-07T11:20:44.913Z,82.69
2018-12-07T11:23:19.397Z,82.33
2018-12-07T11:25:53.078Z,81.64
2018-12-07T11:28:27.424Z,81.26
2018-12-07T11:31:01.008Z,82.32
2018-12-07T11:33:48.533Z,81.56
2018-12-07T11:36:15.909Z,82.12
2018-12-07T11:38:44.206Z,80.89
2018-12-07T11:41:12.523Z,81.16
2018-12-07T11:43:40.809Z,81.80
2018-12-07T11:46:08.964Z,81.22
2018-12-07T11:48:37.151Z,82.19
2018-12-07T11:51:05.437Z,82.11
2018-12-07T11:53:33.599Z,80.97
2018-12-07T11:56:01.877Z,81.30
2018-12-07T11:58:30.022Z,81.44
2018-12-07T12:00:58.230Z,81.01
2018-12-07T12:03:26.462Z,80.91
2018-12-07T12:05:54.621Z,80.53
2018-12-07T12:08:22.854Z,80.69
2018-12-07T12:10:51.015Z,80.02
2018-12-07T12:13:19.313Z,80.07
2018-12-07T12:15:47.692Z,80.26
2018-12-07T12:18:15.855Z,80.08
2018-12-07T12:20:44.008Z,79.66
2018-12-07T12:23:12.208Z,79.56
2018-12-07T12:25:40.413Z,80.38
2018-12-07T12:28:08.650Z,80.13
2018-12-07T12:30:36.816Z,79.83
2018-12-07T12:33:05.026Z,79.13
2018-12-07T12:35:33.277Z,79.04
2018-12-07T12:38:01.613Z,79.58
2018-12-07T12:40:29.826Z,78.48
2018-12-07T12:42:57.973Z,77.05
2018-12-07T12:45:26.200Z,77.95
2018-12-07T12:47:54.425Z,77.95
2018-12-07T12:50:27.964Z,78.28
2018-12-07T12:52:56.206Z,77.49
2018-12-07T12:55:24.349Z,78.28
2018-12-07T12:57:52.595Z,76.75
2018-12-07T13:00:20.774Z,77.44
2018-12-07T13:02:48.910Z,77.17
2018-12-07T13:05:17.106Z,77.61
2018-12-07T13:07:45.245Z,77.17
2018-12-07T13:10:14.145Z,77.59
2018-12-07T13:12:42.429Z,77.37
2018-12-07T13:15:10.814Z,76.98
2018-12-07T13:17:38.964Z,77.32
2018-12-07T13:20:08.632Z,76.93
2018-12-07T13:22:37.057Z,77.36
2018-12-07T13:25:06.265Z,77.20
2018-12-07T13:27:34.464Z,76.96
2018-12-07T13:30:02.663Z,76.95
2018-12-07T13:32:31.021Z,75.72
2018-12-07T13:34:59.156Z,76.34
2018-12-07T13:37:27.658Z,75.51
2018-12-07T13:39:56.078Z,75.51
2018-12-07T13:42:24.705Z,75.55
2018-12-07T13:44:53.047Z,75.67
2018-12-07T13:47:21.981Z,75.85
2018-12-07T13:49:52.428Z,75.29
2018-12-07T13:52:20.826Z,75.72
2018-12-07T13:54:49.125Z,74.91
2018-12-07T13:57:17.557Z,75.57
2018-12-07T13:59:45.879Z,75.45
2018-12-07T14:02:14.670Z,75.27
2018-12-07T14:04:43.164Z,75.82
2018-12-07T14:07:11.619Z,74.88
2018-12-07T14:09:40.112Z,76.21
2018-12-07T14:12:08.351Z,75.48
2018-12-07T14:14:36.738Z,75.27
2018-12-07T14:17:05.495Z,75.75
2018-12-07T14:19:33.825Z,76.34
2018-12-07T14:22:02.806Z,75.77
2018-12-07T14:24:31.252Z,76.97
2018-12-07T14:26:59.913Z,76.28
2018-12-07T14:29:29.770Z,75.71
2018-12-07T14:31:58.567Z,76.25
2018-12-07T14:34:26.897Z,75.72
2018-12-07T14:36:55.103Z,76.26
2018-12-07T14:39:24.097Z,75.38
2018-12-07T14:41:52.487Z,75.76
2018-12-07T14:44:20.711Z,75.96
2018-12-07T14:46:49.073Z,76.31
2018-12-07T14:49:17.404Z,75.38
2018-12-07T14:51:45.646Z,75.73
2018-12-07T14:54:13.922Z,74.75
2018-12-07T14:56:42.340Z,74.40
2018-12-07T14:59:10.736Z,74.80
2018-12-07T15:01:39.109Z,74.87
2018-12-07T15:04:07.588Z,74.42
2018-12-07T15:06:36.264Z,73.66
2018-12-07T15:09:08.003Z,74.00
2018-12-07T15:11:36.378Z,75.96
2018-12-07T15:14:04.784Z,76.72
2018-12-07T15:16:33.268Z,78.49
2018-12-07T15:19:01.983Z,78.56
2018-12-07T15:21:30.540Z,79.54
2018-12-07T15:23:58.862Z,79.43
2018-12-07T15:26:27.074Z,79.59
2018-12-07T15:28:55.443Z,79.95
2018-12-07T15:31:23.783Z,80.22
2018-12-07T15:33:52.447Z,80.62
2018-12-07T15:36:20.787Z,80.83
2018-12-07T15:38:49.368Z,81.87
2018-12-07T15:41:17.781Z,82.97
2018-12-07T15:43:46.892Z,82.33
2018-12-07T15:46:15.319Z,83.42
2018-12-07T15:48:43.720Z,82.82
2018-12-07T15:51:12.061Z,83.34
2018-12-07T15:53:40.354Z,83.58
2018-12-07T15:56:08.669Z,84.09
2018-12-07T15:58:37.539Z,84.41
2018-12-07T16:01:05.957Z,83.83
2018-12-07T16:03:34.335Z,84.61
2018-12-07T16:06:02.836Z,84.93
2018-12-07T16:08:31.399Z,84.33
2018-12-07T16:10:59.751Z,84.79
2018-12-07T16:13:28.394Z,85.71
2018-12-07T16:15:56.667Z,85.11
2018-12-07T16:18:24.981Z,86.12
2018-12-07T16:20:53.773Z,85.72
2018-12-07T16:23:22.179Z,85.80
2018-12-07T16:25:51.031Z,85.59
2018-12-07T16:28:19.659Z,85.90
2018-12-07T16:30:47.969Z,86.33
2018-12-07T16:33:16.273Z,86.36
2018-12-07T16:35:44.785Z,86.96
2018-12-07T16:38:13.075Z,86.14
2018-12-07T16:40:41.394Z,86.00
2018-12-07T16:43:09.708Z,86.70
2018-12-07T16:45:38.045Z,87.14
2018-12-07T16:48:06.357Z,87.21
2018-12-07T16:50:36.732Z,87.36
2018-12-07T16:53:04.946Z,87.29
2018-12-07T16:55:33.399Z,87.04
2018-12-07T16:58:01.857Z,87.03
2018-12-07T17:00:30.091Z,86.18
2018-12-07T17:02:58.437Z,86.15
2018-12-07T17:05:26.721Z,86.80
2018-12-07T17:07:55.101Z,87.17
2018-12-07T17:10:23.315Z,86.28
2018-12-07T17:12:52.472Z,87.49
2018-12-07T17:15:20.832Z,87.56
2018-12-07T17:17:49.898Z,86.84
2018-12-07T17:20:18.250Z,86.68
2018-12-07T17:22:46.699Z,87.63
2018-12-07T17:25:15.029Z,87.65
2018-12-07T17:27:43.689Z,86.79
2018-12-07T17:30:12.082Z,87.05
2018-12-07T17:32:40.580Z,87.47
2018-12-07T17:35:08.871Z,87.33
2018-12-07T17:37:37.032Z,87.76
2018-12-07T17:40:06.111Z,87.69
2018-12-07T17:42:34.404Z,89.28
2018-12-07T17:45:02.892Z,91.21
2018-12-07T17:47:31.117Z,90.83
2018-12-07T17:50:00.328Z,90.94
2018-12-07T17:52:28.688Z,91.07
2018-12-07T17:54:57.012Z,90.01
2018-12-07T17:57:25.696Z,89.50
2018-12-07T17:59:53.974Z,88.20
2018-12-07T18:02:22.169Z,88.52
2018-12-07T18:04:50.341Z,89.28
2018-12-07T18:07:18.493Z,90.21
2018-12-07T18:09:46.638Z,89.85
2018-12-07T18:12:14.902Z,90.76
2018-12-07T18:14:43.302Z,91.70
2018-12-07T18:17:11.798Z,91.78
2018-12-07T18:19:40.062Z,90.90
2018-12-07T18:22:08.275Z,91.77
2018-12-07T18:24:36.611Z,91.26
2018-12-07T18:27:05.816Z,91.59
2018-12-07T18:29:34.474Z,91.06
2018-12-07T18:32:02.924Z,91.06
2018-12-07T18:34:31.220Z,91.59
2018-12-07T18:36:59.677Z,92.17
2018-12-07T18:39:28.568Z,93.47
2018-12-07T18:41:57.032Z,93.19
2018-12-07T18:44:25.455Z,93.15
2018-12-07T18:46:53.787Z,94.05
2018-12-07T18:49:22.267Z,93.87
2018-12-07T18:51:50.425Z,93.87
2018-12-07T18:54:18.596Z,93.84
2018-12-07T18:56:46.891Z,93.14
2018-12-07T18:59:15.906Z,91.75
2018-12-07T19:01:44.570Z,91.41
2018-12-07T19:04:12.898Z,91.38
2018-12-07T19:06:41.277Z,91.75
2018-12-07T19:09:11.695Z,91.25
2018-12-07T19:11:40.045Z,91.01
2018-12-07T19:14:08.429Z,90.17
2018-12-07T19:16:36.930Z,91.16
2018-12-07T19:19:05.361Z,89.76
2018-12-07T19:21:33.931Z,89.30
2018-12-07T19:24:02.644Z,89.58
2018-12-07T19:26:30.958Z,89.12
2018-12-07T19:28:59.606Z,89.17
2018-12-07T19:31:27.945Z,89.46
2018-12-07T19:33:56.299Z,89.80
2018-12-07T19:36:24.819Z,90.29
2018-12-07T19:38:53.013Z,89.34
2018-12-07T19:41:21.265Z,89.92
2018-12-07T19:43:49.433Z,90.35
2018-12-07T19:46:17.863Z,89.46
2018-12-07T19:48:46.167Z,88.69
2018-12-07T19:51:14.532Z,88.98
2018-12-07T19:53:42.840Z,88.60
2018-12-07T19:56:11.229Z,89.23
2018-12-07T19:58:39.782Z,89.23
2018-12-07T20:01:08.469Z,88.46
2018-12-07T20:03:37.164Z,88.55
2018-12-07T20:06:06.767Z,87.47
2018-12-07T20:08:35.915Z,88.14
2018-12-07T20:11:04.612Z,88.10
2018-12-07T20:13:32.953Z,88.03
2018-12-07T20:16:01.156Z,88.08
2018-12-07T20:18:29.608Z,88.79
2018-12-07T20:20:58.107Z,88.96
2018-12-07T20:23:26.575Z,89.66
2018-12-07T20:25:54.865Z,88.67
2018-12-07T20:28:23.179Z,89.51
2018-12-07T20:30:51.492Z,90.00
2018-12-07T20:33:20.333Z,88.77
2018-12-07T20:35:48.892Z,89.27
2018-12-07T20:38:17.137Z,89.21
2018-12-07T20:40:45.464Z,89.00
2018-12-07T20:43:14.693Z,90.22
2018-12-07T20:45:43.159Z,89.52
2018-12-07T20:48:11.558Z,89.29
2018-12-07T20:50:40.619Z,89.82
2018-12-07T20:53:09.093Z,89.07
2018-12-07T20:55:37.565Z,89.15
2018-12-07T20:58:06.000Z,89.09
2018-12-07T21:00:34.187Z,88.25
2018-12-07T21:03:02.962Z,88.35
2018-12-07T21:07:49.876Z,88.75
2018-12-07T21:11:36.669Z,87.57
2018-12-07T21:14:29.394Z,87.52
2018-12-07T21:17:09.124Z,86.38
2018-12-07T21:19:39.710Z,87.58
2018-12-07T21:22:08.274Z,86.94
2018-12-07T21:24:37.777Z,86.30
2018-12-07T21:27:06.293Z,86.64
2018-12-07T21:29:34.594Z,86.97
2018-12-07T21:32:05.576Z,86.06
2018-12-07T21:34:45.173Z,85.62
2018-12-07T21:37:13.588Z,85.84
2018-12-07T21:39:46.507Z,86.17
2018-12-07T21:42:15.115Z,85.24
2018-12-07T21:44:43.433Z,86.69
2018-12-07T21:47:11.877Z,87.44
2018-12-07T21:49:49.843Z,87.53
2018-12-07T21:52:26.166Z,89.30
2018-12-07T21:54:54.570Z,89.21
2018-12-07T21:57:22.938Z,90.17
2018-12-07T21:59:51.886Z,88.97
2018-12-07T22:02:20.263Z,89.86
2018-12-07T22:04:48.675Z,89.97
2018-12-07T22:07:17.475Z,89.76
2018-12-07T22:09:46.038Z,90.66
2018-12-07T22:12:14.687Z,90.40
2018-12-07T22:14:43.090Z,90.56
2018-12-07T22:17:11.393Z,90.11
2018-12-07T22:19:39.871Z,90.08
2018-12-07T22:22:09.370Z,89.12
2018-12-07T22:24:37.740Z,88.95
2018-12-07T22:27:05.949Z,89.59
2018-12-07T22:29:34.317Z,88.61
2018-12-07T22:32:02.792Z,89.27
2018-12-07T22:34:32.034Z,89.51
2018-12-07T22:37:00.333Z,88.96
2018-12-07T22:39:28.738Z,89.14
2018-12-07T22:41:57.213Z,89.70
2018-12-07T22:44:25.734Z,89.35
2018-12-07T22:46:53.916Z,90.25
2018-12-07T22:49:22.062Z,89.74
2018-12-07T22:51:50.419Z,89.08
2018-12-07T22:54:18.649Z,89.22
2018-12-07T22:56:46.898Z,88.01
2018-12-07T22:59:15.137Z,87.42
2018-12-07T23:01:43.401Z,87.38
2018-12-07T23:04:11.688Z,87.73
2018-12-07T23:06:39.958Z,86.87
2018-12-07T23:09:08.438Z,87.76
2018-12-07T23:11:36.645Z,86.50
2018-12-07T23:14:04.872Z,85.77
2018-12-07T23:16:33.061Z,85.16
2018-12-07T23:19:01.229Z,85.07
2018-12-07T23:21:29.505Z,85.10
2018-12-07T23:23:57.822Z,86.06
2018-12-07T23:26:25.956Z,85.30
2018-12-07T23:28:54.745Z,84.44
2018-12-07T23:31:22.918Z,85.08
2018-12-07T23:33:51.294Z,85.17
2018-12-07T23:36:19.582Z,85.68
2018-12-07T23:38:47.878Z,84.89
2018-12-07T23:41:16.741Z,83.30
2018-12-07T23:43:44.918Z,84.28
2018-12-07T23:46:13.068Z,84.71
2018-12-07T23:48:41.289Z,84.31
2018-12-07T23:51:09.452Z,83.98
2018-12-07T23:53:37.594Z,83.48
2018-12-07T23:56:05.843Z,83.36
2018-12-07T23:58:34.053Z,82.63
